Time;durP1;ratioP1;P1;durP2;ratioP2;P2;SDS_P1;SDS_P2;PMS_P1;PMS_P2;Temp;Humidity;BMP_temperature;BMP_pressure;BME280_temperature;BME280_humidity;BME280_pressure;Samples;Min_cycle;Max_cycle;Signal;HPM_P1;HPM_P2
2022/09/02 00:01:36;;;;;;;6.47;2.42;;;;;;;16.93;55.62;100768.63;6035831;23;96822;-82
2022/09/02 00:04:05;;;;;;;3.88;2.17;;;;;;;16.95;55.62;100751.66;6033920;23;96954;-82
2022/09/02 00:06:31;;;;;;;7.45;2.78;;;;;;;16.95;55.95;100764.91;6011537;23;101012;-82
2022/09/02 00:08:57;;;;;;;6.40;2.60;;;;;;;16.82;56.89;100773.63;6059080;23;97809;-82
2022/09/02 00:11:26;;;;;;;4.07;2.38;;;;;;;16.72;57.21;100770.56;6035613;23;96891;-82
2022/09/02 00:13:52;;;;;;;3.35;2.30;;;;;;;16.58;57.46;100766.00;6010774;23;96976;-82
2022/09/02 00:16:18;;;;;;;5.50;2.50;;;;;;;16.73;57.22;100767.84;6012000;23;101283;-82
2022/09/02 00:18:43;;;;;;;5.47;2.58;;;;;;;16.66;57.03;100750.53;6035170;23;100784;-82
2022/09/02 00:21:12;;;;;;;3.97;2.30;;;;;;;16.66;57.35;100771.72;6033553;23;97329;-82
2022/09/02 00:23:39;;;;;;;3.85;2.28;;;;;;;16.83;57.16;100775.34;6036014;23;96772;-81
2022/09/02 00:26:04;;;;;;;3.72;2.47;;;;;;;16.72;57.84;100775.84;6010453;23;101635;-82
2022/09/02 00:28:30;;;;;;;4.65;2.33;;;;;;;16.72;57.22;100774.06;6036065;23;97236;-82
2022/09/02 00:30:56;;;;;;;7.00;2.95;;;;;;;16.39;57.84;100758.13;6034391;23;97399;-82
2022/09/02 00:33:22;;;;;;;6.10;2.80;;;;;;;16.63;57.33;100761.28;6036569;23;97100;-82
2022/09/02 00:35:49;;;;;;;5.80;2.40;;;;;;;16.43;58.46;100775.56;6003176;23;101898;-82
2022/09/02 00:38:14;;;;;;;3.55;2.00;;;;;;;16.53;58.53;100782.13;6055802;23;97874;-82
2022/09/02 00:40:46;;;;;;;4.65;1.70;;;;;;;16.49;58.44;100775.28;6006005;23;97287;-82
2022/09/02 00:43:25;;;;;;;5.15;2.08;;;;;;;16.48;58.70;100786.78;6007058;23;96613;-82
2022/09/02 00:45:51;;;;;;;3.42;2.20;;;;;;;16.47;58.51;100784.25;6029782;23;99284;-82
2022/09/02 00:48:17;;;;;;;17.92;3.58;;;;;;;16.52;58.87;100783.06;5982788;23;101300;-82
2022/09/02 00:50:42;;;;;;;6.72;2.55;;;;;;;16.52;58.82;100780.41;5981707;23;97753;-82
2022/09/02 00:53:09;;;;;;;2.90;1.75;;;;;;;16.42;59.25;100789.75;6005708;23;97226;-82
2022/09/02 00:55:43;;;;;;;4.13;2.50;;;;;;;16.44;58.89;100761.41;5981742;23;101000;-82
2022/09/02 00:58:15;;;;;;;5.68;2.53;;;;;;;16.24;59.63;100751.81;6006601;23;101122;-82
2022/09/02 01:00:44;;;;;;;4.60;1.60;;;;;;;16.34;59.77;100781.34;5982918;23;98226;-82
2022/09/02 01:03:16;;;;;;;3.97;2.35;;;;;;;16.19;60.18;100775.03;5982649;23;96834;-82
2022/09/02 01:05:44;;;;;;;5.22;2.33;;;;;;;16.36;59.65;100783.94;6005574;23;101943;-82
2022/09/02 01:08:15;;;;;;;3.55;2.25;;;;;;;16.35;59.66;100783.06;6006851;23;98266;-82
2022/09/02 01:10:41;;;;;;;6.72;2.63;;;;;;;16.34;59.40;100777.84;6007517;23;97375;-82
2022/09/02 01:13:11;;;;;;;5.22;1.90;;;;;;;16.21;60.04;100770.53;5980986;23;97402;-82
2022/09/02 01:15:43;;;;;;;4.60;2.60;;;;;;;16.29;59.84;100780.75;6006282;23;100082;-81
2022/09/02 01:18:12;;;;;;;6.82;2.50;;;;;;;16.21;60.10;100774.97;5983462;23;99453;-82
2022/09/02 01:20:38;;;;;;;8.30;2.63;;;;;;;16.18;60.32;100770.69;6007025;23;97301;-81
2022/09/02 01:23:04;;;;;;;4.35;2.45;;;;;;;16.18;60.57;100777.78;6008294;23;96792;-82
2022/09/02 01:25:32;;;;;;;6.35;2.20;;;;;;;16.14;60.81;100770.88;6007725;23;101453;-81
2022/09/02 01:28:04;;;;;;;6.30;2.47;;;;;;;16.26;59.99;100771.16;6007544;23;98002;-82
2022/09/02 01:30:31;;;;;;;6.10;2.70;;;;;;;16.45;59.78;100775.50;6005383;23;97439;-82
2022/09/02 01:32:57;;;;;;;8.20;2.60;;;;;;;16.26;60.55;100783.50;6031393;23;96720;-82
2022/09/02 01:35:23;;;;;;;4.95;1.95;;;;;;;16.21;60.54;100781.13;6010740;23;101674;-82
2022/09/02 01:37:48;;;;;;;4.15;2.25;;;;;;;16.21;60.33;100778.47;6036571;23;100292;-81
2022/09/02 01:40:16;;;;;;;3.95;2.33;;;;;;;16.18;60.66;100781.28;6034909;23;96727;-82
2022/09/02 01:42:45;;;;;;;4.10;2.40;;;;;;;16.15;60.97;100778.78;6036733;23;97176;-82
2022/09/02 01:45:10;;;;;;;9.88;3.22;;;;;;;16.07;61.41;100791.53;6035817;23;101764;-82
2022/09/02 01:47:36;;;;;;;5.30;2.25;;;;;;;16.07;61.23;100789.75;6037112;23;98903;-82
2022/09/02 01:50:07;;;;;;;7.93;2.83;;;;;;;16.06;61.62;100789.84;6010135;23;97204;-82
2022/09/02 01:52:33;;;;;;;9.07;2.88;;;;;;;16.06;62.00;100784.53;6036724;23;97036;-82
2022/09/02 01:54:59;;;;;;;3.78;1.90;;;;;;;16.03;61.63;100763.50;6036029;23;100819;-81
2022/09/02 01:57:25;;;;;;;4.38;2.20;;;;;;;16.03;61.97;100780.25;6037239;23;101530;-81
2022/09/02 01:59:52;;;;;;;6.55;2.30;;;;;;;16.09;61.51;100778.22;6035233;23;97222;-83
2022/09/02 02:02:19;;;;;;;3.97;2.35;;;;;;;15.90;61.62;100757.94;6037017;23;96888;-82
2022/09/02 02:04:45;;;;;;;4.07;2.20;;;;;;;15.99;61.18;100765.41;6035053;23;101171;-82
2022/09/02 02:07:14;;;;;;;4.40;2.00;;;;;;;15.96;61.71;100767.38;6011775;23;101848;-81
2022/09/02 02:09:41;;;;;;;11.38;3.03;;;;;;;16.00;61.61;100780.41;6035585;23;96851;-82
2022/09/02 02:12:07;;;;;;;10.52;2.65;;;;;;;15.92;61.80;100766.66;6012091;23;97255;-82
2022/09/02 02:14:33;;;;;;;12.00;3.05;;;;;;;15.95;62.09;100778.91;6036302;23;101377;-82
2022/09/02 02:16:58;;;;;;;7.80;2.58;;;;;;;15.96;61.96;100775.31;6036115;23;101405;-82
2022/09/02 02:19:24;;;;;;;8.52;2.53;;;;;;;15.91;62.12;100746.44;6036077;23;96847;-82
2022/09/02 02:21:50;;;;;;;4.85;2.42;;;;;;;16.00;62.06;100775.09;6037639;23;97047;-82
2022/09/02 02:24:16;;;;;;;3.20;2.13;;;;;;;15.93;61.83;100749.84;6033318;23;101775;-83
2022/09/02 02:26:41;;;;;;;9.57;3.00;;;;;;;15.97;62.14;100756.72;6012697;23;101503;-82
2022/09/02 02:29:08;;;;;;;15.05;3.30;;;;;;;15.99;62.31;100759.28;6011763;23;97677;-82
2022/09/02 02:31:36;;;;;;;16.55;3.03;;;;;;;15.88;62.19;100749.19;6037142;23;97231;-81
2022/09/02 02:34:03;;;;;;;10.02;3.03;;;;;;;16.02;62.51;100778.50;6035034;23;101225;-82
2022/09/02 02:36:28;;;;;;;6.53;2.58;;;;;;;16.11;62.19;100771.03;6012720;23;100884;-81
2022/09/02 02:38:54;;;;;;;8.30;3.13;;;;;;;16.16;62.22;100767.25;6011770;23;97155;-81
2022/09/02 02:41:19;;;;;;;6.72;2.47;;;;;;;16.14;62.63;100777.03;6033753;23;96916;-82
2022/09/02 02:43:46;;;;;;;9.27;3.20;;;;;;;16.13;62.45;100777.13;6059993;23;102300;-82
2022/09/02 02:46:12;;;;;;;6.25;2.72;;;;;;;16.18;62.33;100773.31;6036572;23;101000;-81
2022/09/02 02:48:38;;;;;;;6.63;2.75;;;;;;;16.18;62.40;100775.13;6036213;23;97218;-82
2022/09/02 02:51:05;;;;;;;4.55;2.63;;;;;;;15.99;62.51;100759.28;6035672;23;97060;-82
2022/09/02 02:53:31;;;;;;;4.75;2.70;;;;;;;16.04;62.81;100763.41;6011945;23;101989;-82
2022/09/02 02:55:58;;;;;;;5.80;2.90;;;;;;;16.00;63.09;100759.22;6036186;23;98259;-81
2022/09/02 02:58:23;;;;;;;4.93;2.60;;;;;;;15.95;63.02;100771.81;6009425;23;96940;-82
2022/09/02 03:00:50;;;;;;;6.25;2.45;;;;;;;15.85;63.35;100767.88;6035883;23;97412;-82
2022/09/02 03:03:18;;;;;;;4.82;2.10;;;;;;;15.78;63.68;100763.84;6060871;23;99615;-82
2022/09/02 03:05:46;;;;;;;7.13;2.50;;;;;;;15.80;63.60;100772.56;6036403;23;100486;-81
2022/09/02 03:08:13;;;;;;;6.40;2.72;;;;;;;15.80;63.97;100770.78;6036121;23;96777;-82
2022/09/02 03:10:40;;;;;;;6.40;3.00;;;;;;;15.76;64.12;100768.34;6036148;23;97298;-81
2022/09/02 03:13:08;;;;;;;5.45;2.72;;;;;;;15.77;63.78;100756.84;6036408;23;101606;-82
2022/09/02 03:15:36;;;;;;;4.60;2.30;;;;;;;15.83;63.72;100765.34;6034124;23;101665;-82
2022/09/02 03:18:02;;;;;;;7.60;2.67;;;;;;;15.74;63.84;100765.78;6035347;23;98027;-81
2022/09/02 03:20:28;;;;;;;7.18;2.65;;;;;;;15.64;63.29;100753.88;6011871;23;97169;-82
2022/09/02 03:22:58;;;;;;;8.63;2.83;;;;;;;15.70;63.11;100764.19;6036435;23;101720;-80
2022/09/02 03:25:25;;;;;;;8.27;3.15;;;;;;;15.66;63.30;100757.31;6011990;23;101398;-81
2022/09/02 03:27:54;;;;;;;7.00;2.53;;;;;;;15.82;62.36;100762.75;6013111;23;97308;-82
2022/09/02 03:30:24;;;;;;;7.95;2.80;;;;;;;15.66;62.15;100741.44;6035323;23;97252;-82
2022/09/02 03:32:50;;;;;;;4.57;2.58;;;;;;;15.59;62.62;100735.59;6011300;23;101239;-81
2022/09/02 03:35:17;;;;;;;4.60;2.30;;;;;;;15.56;61.93;100735.75;6033209;23;100975;-82
2022/09/02 03:37:44;;;;;;;4.93;2.17;;;;;;;15.56;61.56;100738.41;6012461;23;96756;-82
2022/09/02 03:40:15;;;;;;;7.72;2.53;;;;;;;15.62;61.65;100761.91;6035167;23;97173;-83
2022/09/02 03:42:41;;;;;;;3.70;2.30;;;;;;;15.60;61.86;100753.19;6035815;23;101217;-82
2022/09/02 03:45:08;;;;;;;4.93;2.50;;;;;;;15.56;61.54;100751.63;6034721;23;101581;-81
2022/09/02 03:47:34;;;;;;;4.28;2.05;;;;;;;15.78;61.14;100761.19;6036449;23;96787;-84
2022/09/02 03:50:02;;;;;;;3.75;2.00;;;;;;;15.68;60.76;100749.31;6033370;23;97040;-81
2022/09/02 03:52:28;;;;;;;4.18;2.13;;;;;;;15.76;60.90;100771.84;6034740;23;101465;-82
2022/09/02 03:54:55;;;;;;;4.35;2.30;;;;;;;15.76;61.34;100768.34;6035851;23;98275;-82
2022/09/02 03:57:24;;;;;;;3.20;1.90;;;;;;;15.74;61.59;100767.59;6036640;23;97303;-81
2022/09/02 03:59:51;;;;;;;6.65;2.33;;;;;;;15.54;61.43;100752.63;6037307;23;96959;-81
2022/09/02 04:02:17;;;;;;;5.95;2.22;;;;;;;15.60;61.21;100762.91;6035145;23;101559;-81
2022/09/02 04:04:42;;;;;;;4.72;2.20;;;;;;;15.65;61.23;100757.38;6036002;23;101277;-82
2022/09/02 04:07:08;;;;;;;10.27;2.17;;;;;;;15.60;61.67;100752.31;6010867;23;97535;-82
2022/09/02 04:09:34;;;;;;;4.97;2.35;;;;;;;15.62;62.23;100772.50;6056960;23;97254;-81
2022/09/02 04:12:02;;;;;;;4.35;2.20;;;;;;;15.73;61.71;100768.50;6035065;23;101627;-81
2022/09/02 04:14:28;;;;;;;8.77;2.55;;;;;;;15.60;62.18;100773.50;6036116;23;101520;-81
2022/09/02 04:16:54;;;;;;;10.45;3.28;;;;;;;15.38;61.75;100744.53;6012206;23;96716;-82
2022/09/02 04:19:20;;;;;;;5.43;2.10;;;;;;;15.42;61.86;100771.69;6034801;23;97141;-81
2022/09/02 04:21:46;;;;;;;4.10;1.98;;;;;;;15.60;61.53;100774.34;6012003;23;99528;-82
2022/09/02 04:24:12;;;;;;;5.93;2.58;;;;;;;15.48;62.50;100777.59;6011115;23;101504;-82
2022/09/02 04:26:41;;;;;;;3.88;2.17;;;;;;;15.48;61.88;100759.06;6009949;23;96655;-82
2022/09/02 04:29:08;;;;;;;8.45;2.22;;;;;;;15.51;62.32;100771.28;6033818;23;96937;-81
2022/09/02 04:31:34;;;;;;;5.85;2.40;;;;;;;15.54;62.28;100771.16;6034651;23;101397;-82
2022/09/02 04:34:01;;;;;;;8.32;2.55;;;;;;;15.47;62.36;100753.81;6009911;23;100619;-81
2022/09/02 04:36:27;;;;;;;12.10;2.78;;;;;;;15.47;62.85;100762.63;5994527;23;96754;-82
2022/09/02 04:38:56;;;;;;;7.95;3.00;;;;;;;15.49;63.05;100760.75;5982815;23;97166;-82
2022/09/02 04:41:26;;;;;;;6.65;2.80;;;;;;;15.56;63.62;100777.19;6006464;23;100926;-83
2022/09/02 04:43:56;;;;;;;8.32;2.78;;;;;;;15.37;63.20;100764.84;6007559;23;101373;-82
2022/09/02 04:46:25;;;;;;;6.43;2.33;;;;;;;15.40;63.10;100755.91;6008502;23;97502;-82
2022/09/02 04:48:50;;;;;;;7.50;2.47;;;;;;;15.47;62.53;100781.13;6009298;23;97322;-83
2022/09/02 04:51:19;;;;;;;5.35;2.13;;;;;;;15.49;62.38;100774.00;5984000;23;101391;-83
2022/09/02 04:53:48;;;;;;;5.70;2.17;;;;;;;15.64;62.12;100775.06;5985394;23;101475;-82
2022/09/02 04:56:17;;;;;;;10.98;2.58;;;;;;;15.47;62.67;100773.19;5984873;23;97475;-83
2022/09/02 04:58:43;;;;;;;4.30;2.00;;;;;;;15.60;62.65;100776.13;5984868;23;96908;-83
2022/09/02 05:01:16;;;;;;;7.80;2.67;;;;;;;15.36;62.93;100757.00;5981358;23;99860;-83
2022/09/02 05:03:43;;;;;;;7.00;2.47;;;;;;;15.43;62.91;100773.44;5984233;23;101333;-83
2022/09/02 05:06:14;;;;;;;10.07;2.58;;;;;;;15.50;63.02;100781.00;6008052;23;96728;-82
2022/09/02 05:08:41;;;;;;;8.40;2.70;;;;;;;15.44;62.81;100768.06;6030204;23;97010;-82
2022/09/02 05:11:17;;;;;;;11.55;2.45;;;;;;;15.49;62.93;100787.22;6007131;23;101196;-83
2022/09/02 05:13:43;;;;;;;8.60;3.22;;;;;;;15.29;63.72;100753.75;6009058;23;98127;-82
2022/09/02 05:16:09;;;;;;;9.05;2.28;;;;;;;15.34;63.97;100772.94;6006965;23;97205;-83
2022/09/02 05:18:34;;;;;;;9.70;3.13;;;;;;;15.36;64.22;100780.81;5983855;23;97090;-82
2022/09/02 05:21:05;;;;;;;10.70;3.30;;;;;;;15.32;64.32;100779.22;5982160;23;101198;-83
2022/09/02 05:23:31;;;;;;;11.85;2.70;;;;;;;15.26;64.59;100761.00;5983049;23;101295;-83
2022/09/02 05:25:56;;;;;;;10.38;3.30;;;;;;;15.29;64.58;100777.56;6031878;23;97099;-84
2022/09/02 05:28:22;;;;;;;12.38;3.65;;;;;;;15.36;64.45;100780.81;5984847;23;96898;-85
2022/09/02 05:30:48;;;;;;;15.10;3.75;;;;;;;15.37;64.79;100779.88;6007007;23;101909;-83
2022/09/02 05:33:15;;;;;;;15.40;2.95;;;;;;;15.31;64.71;100766.94;6008601;23;100190;-88
2022/09/02 05:35:43;;;;;;;15.35;3.17;;;;;;;15.52;63.97;100770.34;6015895;23;97307;-87
2022/09/02 05:38:09;;;;;;;13.02;3.33;;;;;;;15.37;64.40;100735.75;6038505;23;96810;-84
2022/09/02 05:40:38;;;;;;;14.57;3.17;;;;;;;15.56;64.42;100775.44;6013642;23;101371;-84
2022/09/02 05:43:06;;;;;;;12.23;3.22;;;;;;;15.77;63.99;100770.06;6039006;23;100264;-87
2022/09/02 05:45:33;;;;;;;16.08;3.33;;;;;;;15.89;63.21;100760.69;6013468;23;98396;-86
2022/09/02 05:49:04;;;;;;;11.15;3.20;;;;;;;16.00;63.04;100782.19;6014473;23;97667;-88
2022/09/02 05:50:44;;;;;;;11.05;2.97;;;;;;;16.02;62.67;100775.88;6041281;23;99111;-84
2022/09/02 05:53:10;;;;;;;8.77;2.47;;;;;;;16.11;61.69;100765.75;6037702;23;101177;-83
2022/09/02 05:55:37;;;;;;;9.55;2.35;;;;;;;16.35;61.23;100771.59;6015484;23;96924;-83
2022/09/02 05:58:02;;;;;;;4.88;2.35;;;;;;;16.46;60.66;100769.25;6014384;23;96820;-82
2022/09/02 06:00:29;;;;;;;5.82;2.13;;;;;;;16.94;59.58;100765.88;6062064;23;101350;-82
2022/09/02 06:02:58;;;;;;;13.10;2.20;;;;;;;17.40;58.90;100778.44;6040199;23;102196;-94
2022/09/02 06:05:31;;;;;;;5.15;2.10;;;;;;;17.78;57.70;100780.78;6016225;23;96785;-81
2022/09/02 06:08:07;;;;;;;5.00;2.40;;;;;;;18.01;56.34;100761.72;6013912;23;97020;-79
2022/09/02 06:10:40;;;;;;;5.43;2.72;;;;;;;18.64;54.73;100781.06;6011174;23;102179;-79
2022/09/02 06:13:06;;;;;;;5.90;2.55;;;;;;;18.92;53.83;100759.00;6035624;23;101426;-81
2022/09/02 06:15:33;;;;;;;5.65;2.40;;;;;;;19.29;52.49;100751.38;6036371;23;97158;-80
2022/09/02 06:18:00;;;;;;;5.50;1.70;;;;;;;19.87;51.53;100768.94;6036654;23;97198;-82
2022/09/02 06:20:31;;;;;;;6.00;2.25;;;;;;;20.06;51.42;100771.22;6012118;23;100209;-80
2022/09/02 06:22:56;;;;;;;4.00;2.05;;;;;;;19.71;51.63;100757.56;6012377;23;101166;-81
2022/09/02 06:25:22;;;;;;;4.60;2.10;;;;;;;19.63;51.59;100758.91;6034772;23;97183;-81
2022/09/02 06:27:48;;;;;;;3.42;1.95;;;;;;;19.55;51.38;100750.53;6037487;23;96935;-80
2022/09/02 06:30:13;;;;;;;5.47;1.95;;;;;;;19.58;50.79;100733.53;6034878;23;101600;-80
2022/09/02 06:32:39;;;;;;;3.55;1.92;;;;;;;20.90;49.45;100769.97;6037082;23;100443;-81
2022/09/02 06:35:09;;;;;;;6.95;2.53;;;;;;;21.67;47.76;100741.28;6035478;23;97534;-81
2022/09/02 06:37:36;;;;;;;6.82;1.80;;;;;;;22.73;45.90;100766.25;6036797;23;97336;-82
2022/09/02 06:40:03;;;;;;;8.45;2.45;;;;;;;23.13;44.34;100751.56;6011517;23;101468;-83
2022/09/02 06:42:30;;;;;;;3.47;1.80;;;;;;;23.73;43.01;100758.28;6034620;23;101968;-78
2022/09/02 06:45:39;;;;;;;5.50;2.03;;;;;;;24.13;42.29;100763.03;6039732;23;97352;-81
2022/09/02 06:48:07;;;;;;;6.47;1.85;;;;;;;25.46;40.33;100750.66;6014337;23;96757;-78
2022/09/02 06:50:41;;;;;;;8.73;2.15;;;;;;;26.64;37.69;100761.28;6014293;23;99928;-78
2022/09/02 06:53:08;;;;;;;4.93;1.85;;;;;;;27.50;35.42;100755.72;6037726;23;100479;-79
2022/09/02 06:55:35;;;;;;;5.28;1.90;;;;;;;28.76;34.57;100734.88;6013855;23;97200;-79
2022/09/02 06:58:02;;;;;;;4.72;1.65;;;;;;;29.12;32.78;100738.31;6036063;23;97226;-82
2022/09/02 07:00:27;;;;;;;6.75;1.63;;;;;;;29.83;31.82;100745.13;6011580;23;101551;-81
2022/09/02 07:05:38;;;;;;;3.45;1.50;;;;;;;31.25;29.04;100731.03;6041050;23;97085;-79
2022/09/02 07:08:04;;;;;;;2.92;1.60;;;;;;;31.66;28.58;100743.53;6038075;23;96939;-79
2022/09/02 07:10:30;;;;;;;3.78;1.60;;;;;;;32.01;28.18;100740.25;6038553;23;100930;-79
2022/09/02 07:12:56;;;;;;;3.13;1.30;;;;;;;31.79;28.70;100747.38;6038060;23;101275;-83
2022/09/02 07:15:22;;;;;;;5.00;1.45;;;;;;;31.37;28.65;100750.50;6061272;23;96696;-85
2022/09/02 07:17:48;;;;;;;9.15;1.80;;;;;;;32.62;28.32;100747.53;6060258;23;97193;-84
2022/09/02 07:20:25;;;;;;;4.43;1.83;;;;;;;33.32;26.88;100746.22;6060831;23;101396;-84
2022/09/02 07:22:55;;;;;;;;;;;;;;;33.01;27.42;100749.16;6038904;23;101721;-89
2022/09/02 07:25:23;;;;;;;5.50;1.88;;;;;;;32.98;26.59;100744.91;6013540;23;97204;-92
2022/09/02 07:27:51;;;;;;;5.47;1.92;;;;;;;32.45;27.91;100738.72;6037332;23;97161;-90
2022/09/02 07:30:16;;;;;;;6.65;1.17;;;;;;;31.44;28.47;100740.59;6013747;23;101251;-89
2022/09/02 07:32:44;;;;;;;3.33;1.65;;;;;;;29.81;30.33;100705.72;6012762;23;101677;-81
2022/09/02 07:35:09;;;;;;;10.02;1.58;;;;;;;29.87;31.19;100749.16;6036859;23;97028;-82
2022/09/02 07:37:36;;;;;;;3.00;1.45;;;;;;;30.05;30.46;100718.41;6012203;23;97519;-81
2022/09/02 07:40:06;;;;;;;4.78;1.40;;;;;;;29.90;31.15;100753.41;6011869;23;101128;-82
2022/09/02 07:42:31;;;;;;;4.93;2.00;;;;;;;29.79;30.73;100754.59;6061254;23;97970;-82
2022/09/02 07:44:57;;;;;;;7.72;2.33;;;;;;;29.60;31.06;100753.00;6036298;23;96704;-88
2022/09/02 07:47:22;;;;;;;1.75;1.30;;;;;;;29.47;31.34;100753.47;6062576;23;96677;-88
2022/09/02 07:49:48;;;;;;;5.38;1.50;;;;;;;29.02;31.89;100757.34;6061362;23;98516;-85
2022/09/02 07:52:14;;;;;;;5.50;1.85;;;;;;;29.55;30.62;100744.50;6062541;23;97932;-85
2022/09/02 07:54:40;;;;;;;5.78;1.65;;;;;;;29.41;30.66;100737.03;6013211;23;97219;-84
2022/09/02 07:57:06;;;;;;;7.45;1.60;;;;;;;29.26;30.86;100753.88;6036809;23;96971;-84
2022/09/02 07:59:33;;;;;;;6.55;1.40;;;;;;;28.99;31.52;100751.38;6030179;23;100555;-89
2022/09/02 08:02:00;;;;;;;4.63;1.60;;;;;;;29.22;30.96;100757.09;6037138;23;98742;-90
2022/09/02 08:04:26;;;;;;;4.05;1.65;;;;;;;28.64;32.08;100755.91;6033153;23;96719;-83
2022/09/02 08:06:53;;;;;;;3.78;1.67;;;;;;;28.40;32.47;100733.13;6005546;23;96860;-83
2022/09/02 08:09:19;;;;;;;1.63;1.23;;;;;;;27.83;33.13;100750.69;6005687;23;102163;-85
2022/09/02 08:11:48;;;;;;;2.25;1.30;;;;;;;28.91;30.98;100743.25;6033920;23;99927;-82
2022/09/02 08:14:18;;;;;;;1.55;0.90;;;;;;;28.83;30.11;100744.91;6029498;23;97523;-82
2022/09/02 08:16:45;;;;;;;2.40;1.15;;;;;;;28.69;30.74;100737.41;6031825;23;98198;-84
2022/09/02 08:19:12;;;;;;;2.67;1.10;;;;;;;28.93;30.40;100743.94;6008121;23;101319;-85
2022/09/02 08:21:37;;;;;;;4.47;1.05;;;;;;;28.93;30.63;100744.78;6034477;23;99803;-87
2022/09/02 08:24:04;;;;;;;7.30;1.35;;;;;;;28.96;30.78;100744.44;6081655;23;97099;-87
2022/09/02 08:26:30;;;;;;;2.63;1.20;;;;;;;29.30;30.56;100739.06;6038385;23;97467;-83
2022/09/02 08:28:57;;;;;;;6.97;1.33;;;;;;;28.70;31.71;100738.22;6057399;23;100014;-83
2022/09/02 08:31:23;;;;;;;4.53;1.60;;;;;;;29.46;31.24;100730.13;6034077;23;101063;-82
2022/09/02 08:33:48;;;;;;;4.15;1.10;;;;;;;29.97;29.54;100743.63;6009531;23;97054;-84
2022/09/02 08:36:14;;;;;;;3.15;1.08;;;;;;;30.25;29.88;100746.84;6010743;23;97162;-84
2022/09/02 08:38:43;;;;;;;5.35;1.30;;;;;;;30.15;29.83;100733.47;6010005;23;101530;-77
2022/09/02 08:41:44;;;;;;;2.37;1.10;;;;;;;30.14;28.62;100737.19;6033636;23;97947;-78
2022/09/02 08:44:15;;;;;;;2.35;1.20;;;;;;;30.44;28.80;100741.06;6032665;23;97178;-81
2022/09/02 08:46:41;;;;;;;2.17;1.00;;;;;;;30.80;28.36;100739.84;6034920;23;97298;-83
2022/09/02 08:49:10;;;;;;;3.28;1.30;;;;;;;31.20;28.52;100740.72;6033241;23;101462;-82
2022/09/02 08:51:46;;;;;;;1.77;1.00;;;;;;;31.30;28.11;100741.31;6010228;23;101454;-81
2022/09/02 08:54:19;;;;;;;1.90;1.10;;;;;;;30.86;29.13;100737.31;6033146;23;97239;-83
2022/09/02 08:56:44;;;;;;;3.15;1.20;;;;;;;30.98;27.82;100729.63;6084726;23;96866;-80
2022/09/02 08:59:11;;;;;;;3.50;1.08;;;;;;;30.66;29.08;100735.94;6032656;23;101509;-83
2022/09/02 09:01:43;;;;;;;1.90;0.95;;;;;;;30.96;27.55;100730.81;6010127;23;101204;-86
2022/09/02 09:04:23;;;;;;;1.42;0.80;;;;;;;30.72;28.02;100732.56;6035698;23;97333;-85
2022/09/02 09:07:11;;;;;;;6.15;1.10;;;;;;;30.78;27.32;100717.47;6088278;23;97325;-89
2022/09/02 09:09:44;;;;;;;1.83;1.00;;;;;;;31.11;26.61;100731.78;6013365;23;101400;-89
2022/09/02 09:12:19;;;;;;;1.60;0.88;;;;;;;30.20;27.75;100716.72;6013197;23;101028;-88
2022/09/02 09:14:57;;;;;;;3.38;1.00;;;;;;;30.81;27.36;100709.88;6036948;23;96899;-86
2022/09/02 09:17:43;;;;;;;1.95;1.30;;;;;;;32.08;26.02;100721.34;6060242;23;97002;-84
2022/09/02 09:20:21;;;;;;;3.40;1.00;;;;;;;31.68;25.41;100703.50;6034016;23;101105;-86
2022/09/02 09:22:49;;;;;;;3.58;1.10;;;;;;;32.19;25.23;100701.91;6011362;23;101128;-86
2022/09/02 09:25:15;;;;;;;3.67;1.05;;;;;;;31.90;24.81;100709.94;6010609;23;96772;-86
2022/09/02 09:27:44;;;;;;;3.45;0.95;;;;;;;31.92;25.06;100711.50;6035389;23;97349;-89
2022/09/02 09:30:10;;;;;;;1.40;1.00;;;;;;;31.43;25.92;100710.97;6034647;23;100134;-82
2022/09/02 09:32:39;;;;;;;1.85;0.90;;;;;;;31.91;26.48;100695.38;6059761;23;97702;-82
2022/09/02 09:35:10;;;;;;;1.10;0.95;;;;;;;32.49;25.87;100701.97;6034753;23;96764;-81
2022/09/02 09:37:52;;;;;;;3.55;1.10;;;;;;;32.64;24.86;100702.00;6059108;23;97278;-80
2022/09/02 09:40:21;;;;;;;2.22;1.20;;;;;;;32.80;24.64;100712.69;6035889;23;101849;-79
2022/09/02 09:43:09;;;;;;;2.20;1.13;;;;;;;32.27;24.86;100700.16;6059547;23;98171;-77
2022/09/02 09:45:48;;;;;;;1.63;1.08;;;;;;;30.59;25.76;100694.34;6061465;23;97175;-90
2022/09/02 09:48:26;;;;;;;2.55;0.90;;;;;;;28.46;28.41;100696.59;6038533;23;97075;-90
2022/09/02 09:50:54;;;;;;;2.05;1.00;;;;;;;27.75;29.95;100684.00;6014126;23;101990;-88
2022/09/02 09:53:26;;;;;;;1.83;0.93;;;;;;;29.39;27.66;100693.97;6060015;23;101139;-91
2022/09/02 09:55:57;;;;;;;6.40;1.60;;;;;;;29.96;28.00;100690.50;6035077;23;97069;-79
2022/09/02 09:58:29;;;;;;;1.63;0.95;;;;;;;30.47;26.72;100698.44;6033432;23;97216;-78
2022/09/02 10:00:59;;;;;;;1.45;1.10;;;;;;;30.54;26.96;100683.16;6034619;23;101258;-79
2022/09/02 10:03:29;;;;;;;4.75;1.00;;;;;;;29.49;28.70;100691.09;6010393;23;101097;-79
2022/09/02 10:05:57;;;;;;;3.35;1.65;;;;;;;29.99;26.37;100679.31;6060007;23;97281;-82
2022/09/02 10:08:25;;;;;;;1.48;0.80;;;;;;;29.81;27.32;100682.19;6010481;23;97429;-82
2022/09/02 10:10:55;;;;;;;0.90;0.80;;;;;;;29.59;27.32;100666.63;6034604;23;101721;-82
2022/09/02 10:13:25;;;;;;;1.42;0.80;;;;;;;29.09;28.01;100684.59;6009640;23;101538;-81
2022/09/02 10:16:28;;;;;;;2.83;1.00;;;;;;;28.66;27.97;100670.19;6010849;23;97400;-80
2022/09/02 10:18:57;;;;;;;2.20;1.10;;;;;;;28.65;28.71;100665.78;6058715;23;97216;-81
2022/09/02 10:21:36;;;;;;;2.88;1.00;;;;;;;27.60;30.34;100664.81;6029469;23;101137;-80
2022/09/02 10:24:07;;;;;;;1.90;1.33;;;;;;;26.58;30.03;100687.34;6032198;23;101079;-81
2022/09/02 10:26:49;;;;;;;1.48;0.88;;;;;;;26.00;31.14;100682.06;6058853;23;96759;-80
2022/09/02 10:29:44;;;;;;;6.00;1.10;;;;;;;26.23;30.95;100684.44;6032008;23;97147;-80
2022/09/02 10:32:13;;;;;;;2.17;0.98;;;;;;;25.82;31.74;100678.38;5974579;23;101782;-81
2022/09/02 10:34:50;;;;;;;1.52;1.00;;;;;;;25.40;31.42;100678.66;6034106;23;100319;-80
2022/09/02 10:37:19;;;;;;;2.90;0.90;;;;;;;24.56;33.50;100652.94;6054696;23;97296;-81
2022/09/02 10:40:07;;;;;;;2.40;0.90;;;;;;;24.36;33.99;100673.41;6057410;23;97243;-80
2022/09/02 10:42:58;;;;;;;1.45;0.93;;;;;;;24.02;33.86;100663.88;6058795;23;101542;-77
2022/09/02 10:45:36;;;;;;;2.33;1.10;;;;;;;23.80;33.57;100659.50;6035484;23;101573;-77
2022/09/02 10:48:31;;;;;;;1.65;1.10;;;;;;;23.61;33.96;100677.06;6035357;23;97343;-77
2022/09/02 10:51:09;;;;;;;2.17;0.90;;;;;;;23.43;34.60;100679.44;6002869;23;97328;-79
2022/09/02 10:54:00;;;;;;;1.50;1.05;;;;;;;23.39;33.88;100666.44;6008749;23;101766;-80
2022/09/02 10:56:30;;;;;;;1.30;0.80;;;;;;;23.14;34.44;100668.44;6059996;23;97838;-81
2022/09/02 10:59:07;;;;;;;4.80;1.00;;;;;;;23.34;34.60;100676.69;6035356;23;97208;-81
2022/09/02 11:01:33;;;;;;;1.45;0.90;;;;;;;23.32;34.75;100673.25;6060269;23;96980;-81
2022/09/02 11:04:05;;;;;;;2.20;1.20;;;;;;;23.30;35.31;100667.19;6085796;23;97383;-82
2022/09/02 11:06:35;;;;;;;4.57;1.63;;;;;;;23.69;35.84;100668.41;6034497;23;101420;-80
2022/09/02 11:09:07;;;;;;;2.93;0.87;;;;;;;23.59;34.72;100652.25;6011392;23;97152;-83
2022/09/02 11:11:43;;;;;;;2.97;1.00;;;;;;;23.57;34.67;100661.38;6055169;23;97279;-80
2022/09/02 11:14:08;;;;;;;4.38;0.85;;;;;;;23.44;34.58;100666.91;6032599;23;103078;-81
2022/09/02 11:16:38;;;;;;;4.30;0.90;;;;;;;23.43;34.87;100649.97;6058942;23;101394;-83
2022/09/02 11:19:13;;;;;;;2.05;0.93;;;;;;;23.43;33.82;100659.84;6034026;23;97481;-83
2022/09/02 11:22:13;;;;;;;1.63;1.00;;;;;;;23.30;34.46;100659.13;6034496;23;96817;-81
2022/09/02 11:24:46;;;;;;;4.00;1.00;;;;;;;23.22;33.16;100660.63;6058566;23;98190;-81
2022/09/02 11:27:22;;;;;;;3.47;1.52;;;;;;;23.00;33.83;100658.84;6010088;23;101612;-79
2022/09/02 11:29:50;;;;;;;3.30;1.30;;;;;;;23.03;34.11;100658.59;6056136;23;97282;-81
2022/09/02 11:32:25;;;;;;;1.65;1.10;;;;;;;23.11;33.79;100651.78;6054999;23;97469;-81
2022/09/02 11:34:54;;;;;;;3.97;1.63;;;;;;;23.18;34.05;100653.81;6034312;23;100579;-81